createdAt,value
2018-07-03T00:00:35.604Z,23.40
2018-07-03T00:03:03.743Z,23.50
2018-07-03T00:05:31.855Z,23.50
2018-07-03T00:07:59.955Z,23.60
2018-07-03T00:10:28.048Z,23.60
2018-07-03T00:12:56.111Z,23.60
2018-07-03T00:15:24.236Z,23.50
2018-07-03T00:17:52.354Z,23.50
2018-07-03T00:20:20.440Z,23.60
2018-07-03T00:22:48.567Z,23.60
2018-07-03T00:25:16.675Z,23.60
2018-07-03T00:27:44.799Z,23.60
2018-07-03T00:30:12.914Z,23.50
2018-07-03T00:32:41.031Z,23.50
2018-07-03T00:35:09.114Z,23.60
2018-07-03T00:37:37.199Z,23.60
2018-07-03T00:42:33.241Z,23.50
2018-07-03T00:45:01.336Z,23.50
2018-07-03T00:47:29.417Z,23.10
2018-07-03T00:49:57.533Z,23.30
2018-07-03T00:52:25.633Z,22.80
2018-07-03T00:57:21.625Z,23.00
2018-07-03T01:00:01.049Z,23.00
2018-07-03T01:02:29.140Z,22.90
2018-07-03T01:04:57.223Z,22.60
2018-07-03T01:07:25.330Z,22.20
2018-07-03T01:12:21.327Z,22.10
2018-07-03T01:14:49.423Z,22.20
2018-07-03T01:17:17.563Z,22.50
2018-07-03T01:19:45.651Z,22.60
2018-07-03T01:22:13.782Z,21.70
2018-07-03T01:24:41.904Z,22.00
2018-07-03T01:27:10.020Z,21.90
2018-07-03T01:29:38.189Z,22.40
2018-07-03T01:34:34.218Z,22.90
2018-07-03T01:37:02.324Z,22.90
2018-07-03T01:39:30.426Z,23.00
2018-07-03T01:41:58.571Z,22.90
2018-07-03T01:44:26.696Z,22.90
2018-07-03T01:46:54.808Z,22.40
2018-07-03T01:49:22.891Z,21.90
2018-07-03T01:51:51.020Z,21.70
2018-07-03T01:54:19.146Z,21.90
2018-07-03T01:59:21.824Z,22.50
2018-07-03T02:01:49.953Z,22.80
2018-07-03T02:04:18.063Z,23.10
2018-07-03T02:06:46.183Z,22.80
2018-07-03T02:09:14.554Z,23.10
2018-07-03T02:11:43.779Z,23.00
2018-07-03T02:16:39.801Z,22.90
2018-07-03T02:19:07.935Z,22.50
2018-07-03T02:21:36.078Z,22.50
2018-07-03T02:24:04.646Z,22.30
2018-07-03T02:26:32.806Z,22.40
2018-07-03T02:29:00.929Z,22.50
2018-07-03T02:31:29.053Z,22.50
2018-07-03T02:33:57.156Z,22.60
2018-07-03T02:36:25.283Z,22.60
2018-07-03T02:38:53.504Z,22.60
2018-07-03T02:41:21.647Z,22.50
2018-07-03T02:43:49.741Z,22.50
2018-07-03T02:46:17.880Z,22.20
2018-07-03T02:48:46.035Z,22.20
2018-07-03T02:51:14.181Z,22.50
2018-07-03T02:53:42.345Z,22.60
2018-07-03T02:58:38.356Z,21.70
2018-07-03T03:01:06.760Z,21.00
2018-07-03T03:03:34.911Z,21.40
2018-07-03T03:06:03.016Z,21.30
2018-07-03T03:10:58.990Z,22.00
2018-07-03T03:13:27.103Z,22.00
2018-07-03T03:15:55.234Z,22.10
2018-07-03T03:18:23.341Z,22.60
2018-07-03T03:20:51.459Z,22.70
2018-07-03T03:23:19.587Z,22.80
2018-07-03T03:25:47.677Z,22.90
2018-07-03T03:28:15.812Z,23.00
2018-07-03T03:30:43.947Z,23.00
2018-07-03T03:33:12.056Z,22.80
2018-07-03T03:35:40.188Z,22.70
2018-07-03T03:40:36.270Z,22.70
2018-07-03T03:43:04.397Z,22.60
2018-07-03T03:48:00.384Z,22.50
2018-07-03T03:50:28.496Z,22.60
2018-07-03T03:52:56.601Z,22.50
2018-07-03T03:55:24.700Z,22.60
2018-07-03T03:57:52.808Z,22.60
2018-07-03T04:00:20.914Z,22.50
2018-07-03T04:02:49.055Z,22.60
2018-07-03T04:05:17.215Z,22.70
2018-07-03T04:07:45.361Z,22.80
2018-07-03T04:10:13.579Z,22.80
2018-07-03T04:12:41.731Z,22.90
2018-07-03T04:15:09.568Z,22.90
2018-07-03T04:17:37.703Z,22.90
2018-07-03T04:20:05.956Z,23.00
2018-07-03T04:22:34.064Z,23.00
2018-07-03T04:25:02.163Z,23.00
2018-07-03T04:27:30.291Z,23.10
2018-07-03T04:29:58.436Z,23.10
2018-07-03T04:32:26.559Z,23.10
2018-07-03T04:37:22.591Z,23.20
2018-07-03T04:39:50.696Z,23.20
2018-07-03T04:42:19.042Z,23.10
2018-07-03T04:47:15.076Z,23.20
2018-07-03T04:49:43.187Z,23.20
2018-07-03T04:52:11.310Z,23.20
2018-07-03T04:54:39.410Z,23.30
2018-07-03T04:59:36.260Z,23.30
2018-07-03T05:02:04.388Z,23.40
2018-07-03T05:04:32.489Z,23.40
2018-07-03T05:07:00.587Z,23.40
2018-07-03T05:09:28.721Z,23.50
2018-07-03T05:11:56.831Z,23.50
2018-07-03T05:16:58.697Z,23.60
2018-07-03T05:21:55.815Z,23.60
2018-07-03T05:24:23.943Z,23.60
2018-07-03T05:29:20.280Z,23.60
2018-07-03T05:31:48.416Z,23.70
2018-07-03T05:34:16.513Z,23.70
2018-07-03T05:36:44.612Z,23.70
2018-07-03T05:39:13.400Z,23.80
2018-07-03T05:44:09.592Z,23.90
2018-07-03T05:46:38.623Z,23.80
2018-07-03T05:49:06.751Z,23.90
2018-07-03T05:51:34.860Z,23.90
2018-07-03T05:54:02.968Z,23.90
2018-07-03T05:56:31.127Z,23.90
2018-07-03T05:58:59.188Z,23.90
2018-07-03T06:01:27.283Z,24.00
2018-07-03T06:06:23.315Z,23.90
2018-07-03T06:08:51.409Z,23.60
2018-07-03T06:11:19.522Z,23.70
2018-07-03T06:13:47.641Z,23.80
2018-07-03T06:18:43.638Z,23.90
2018-07-03T06:21:11.749Z,23.90
2018-07-03T06:23:40.359Z,23.80
2018-07-03T06:26:08.460Z,23.90
2018-07-03T06:28:36.569Z,23.90
2018-07-03T06:31:04.691Z,24.00
2018-07-03T06:33:32.792Z,24.10
2018-07-03T06:36:00.892Z,24.20
2018-07-03T06:43:24.876Z,24.40
2018-07-03T06:45:53.000Z,24.50
2018-07-03T06:48:21.083Z,24.50
2018-07-03T06:50:49.203Z,24.50
2018-07-03T06:53:17.340Z,24.50
2018-07-03T06:55:45.447Z,24.40
2018-07-03T06:58:13.716Z,24.40
2018-07-03T07:00:41.828Z,24.60
2018-07-03T07:03:09.927Z,24.80
2018-07-03T07:05:38.042Z,24.90
2018-07-03T07:08:06.170Z,25.20
2018-07-03T07:10:34.271Z,25.40
2018-07-03T07:13:02.373Z,25.30
2018-07-03T07:15:30.489Z,25.50
2018-07-03T07:17:58.599Z,25.70
2018-07-03T07:20:26.694Z,25.80
2018-07-03T07:22:54.808Z,25.80
2018-07-03T07:25:22.923Z,25.80
2018-07-03T07:27:51.060Z,25.60
2018-07-03T07:30:19.177Z,25.60
2018-07-03T07:32:47.445Z,25.80
2018-07-03T07:35:15.547Z,25.80
2018-07-03T07:37:43.647Z,25.90
2018-07-03T07:40:11.755Z,25.90
2018-07-03T07:42:39.847Z,26.10
2018-07-03T07:45:08.038Z,26.10
2018-07-03T07:47:36.503Z,26.10
2018-07-03T07:52:32.675Z,26.20
2018-07-03T07:55:00.927Z,26.30
2018-07-03T07:57:29.058Z,26.50
2018-07-03T07:59:57.150Z,26.50
2018-07-03T08:02:25.267Z,26.50
2018-07-03T08:04:53.371Z,26.60
2018-07-03T08:07:21.502Z,26.60
2018-07-03T08:09:49.603Z,26.70
2018-07-03T08:12:17.727Z,26.30
2018-07-03T08:14:45.847Z,26.10
2018-07-03T08:17:13.990Z,26.20
2018-07-03T08:19:42.091Z,26.40
2018-07-03T08:22:10.236Z,26.30
2018-07-03T08:24:38.406Z,26.70
2018-07-03T08:27:06.535Z,26.90
2018-07-03T08:29:34.696Z,27.10
2018-07-03T08:32:02.808Z,27.20
2018-07-03T08:34:30.912Z,27.40
2018-07-03T08:39:27.094Z,27.60
2018-07-03T08:41:55.200Z,27.70
2018-07-03T08:44:23.299Z,27.70
2018-07-03T08:49:19.300Z,27.20
2018-07-03T08:51:47.435Z,27.00
2018-07-03T08:54:15.784Z,27.20
2018-07-03T08:56:43.936Z,27.40
2018-07-03T08:59:12.027Z,27.00
2018-07-03T09:01:40.145Z,27.50
2018-07-03T09:04:08.273Z,28.00
2018-07-03T09:06:36.362Z,28.20
2018-07-03T09:09:07.412Z,28.40
2018-07-03T09:11:35.718Z,28.60
2018-07-03T09:14:04.003Z,28.70
2018-07-03T09:16:32.099Z,28.80
2018-07-03T09:19:00.239Z,28.90
2018-07-03T09:21:28.363Z,29.20
2018-07-03T09:28:52.293Z,29.50
2018-07-03T09:31:20.396Z,29.70
2018-07-03T09:33:48.508Z,29.50
2018-07-03T09:36:16.634Z,29.50
2018-07-03T09:38:44.728Z,29.30
2018-07-03T09:41:12.836Z,29.70
2018-07-03T09:46:08.831Z,29.90
2018-07-03T09:48:36.936Z,29.80
2018-07-03T09:51:05.080Z,28.70
2018-07-03T09:53:33.172Z,29.40
2018-07-03T09:56:01.311Z,29.80
2018-07-03T09:58:29.400Z,29.90
2018-07-03T10:00:58.116Z,30.20
2018-07-03T10:03:27.467Z,30.10
2018-07-03T10:05:58.410Z,30.00
2018-07-03T10:08:27.291Z,30.10
2018-07-03T10:10:55.399Z,30.60
2018-07-03T10:13:23.520Z,30.50
2018-07-03T10:15:51.612Z,30.80
2018-07-03T10:18:19.717Z,30.90
2018-07-03T10:20:47.829Z,30.30
2018-07-03T10:25:43.807Z,29.30
2018-07-03T10:28:15.147Z,29.80
2018-07-03T10:30:43.234Z,30.40
2018-07-03T10:33:11.389Z,30.70
2018-07-03T10:35:39.535Z,31.10
2018-07-03T10:38:07.643Z,31.20
2018-07-03T10:40:35.743Z,31.10
2018-07-03T10:43:03.830Z,31.30
2018-07-03T10:45:31.952Z,31.60
2018-07-03T10:48:00.060Z,31.70
2018-07-03T10:50:28.168Z,31.20
2018-07-03T10:57:52.132Z,32.70
2018-07-03T11:00:20.223Z,33.30
2018-07-03T11:02:48.316Z,33.50
2018-07-03T11:07:44.300Z,33.90
2018-07-03T11:10:12.398Z,34.00
2018-07-03T11:12:40.508Z,34.50
2018-07-03T11:17:36.540Z,34.10
2018-07-03T11:20:07.970Z,34.30
2018-07-03T11:22:36.172Z,34.50
2018-07-03T11:25:04.493Z,34.90
2018-07-03T11:27:32.611Z,34.60
2018-07-03T11:30:00.743Z,34.80
2018-07-03T11:32:28.844Z,34.80
2018-07-03T11:34:56.939Z,35.20
2018-07-03T11:37:25.063Z,35.50
2018-07-03T11:39:53.163Z,35.70
2018-07-03T11:42:21.272Z,35.80
2018-07-03T11:44:49.404Z,36.00
2018-07-03T11:47:17.492Z,36.10
2018-07-03T11:49:45.585Z,36.00
2018-07-03T11:52:13.687Z,36.30
2018-07-03T11:54:41.836Z,36.40
2018-07-03T11:59:38.108Z,36.40
2018-07-03T12:02:06.238Z,36.10
2018-07-03T12:04:34.511Z,36.00
2018-07-03T12:07:02.623Z,36.30
2018-07-03T12:09:30.787Z,36.60
2018-07-03T12:11:58.883Z,36.80
2018-07-03T12:14:27.007Z,36.80
2018-07-03T12:16:55.110Z,37.00
2018-07-03T12:19:23.235Z,37.10
2018-07-03T12:21:51.328Z,36.80
2018-07-03T12:26:47.440Z,36.60
2018-07-03T12:29:15.697Z,36.70
2018-07-03T12:31:43.990Z,36.80
2018-07-03T12:34:12.151Z,37.00
2018-07-03T12:36:40.407Z,37.00
2018-07-03T12:39:09.729Z,37.30
2018-07-03T12:41:37.940Z,37.40
2018-07-03T12:44:06.234Z,37.50
2018-07-03T12:46:34.356Z,37.50
2018-07-03T12:49:02.594Z,37.60
2018-07-03T12:51:30.704Z,37.60
2018-07-03T12:53:58.814Z,37.50
2018-07-03T12:56:27.000Z,37.60
2018-07-03T12:58:55.484Z,37.70
2018-07-03T13:01:23.655Z,37.60
2018-07-03T13:03:51.765Z,37.60
2018-07-03T13:06:20.152Z,37.50
2018-07-03T13:08:48.350Z,37.60
2018-07-03T13:11:16.545Z,37.40
2018-07-03T13:13:44.666Z,37.60
2018-07-03T13:16:13.022Z,37.60
2018-07-03T13:18:41.270Z,37.40
2018-07-03T13:21:09.404Z,37.40
2018-07-03T13:23:37.567Z,37.40
2018-07-03T13:26:05.814Z,37.60
2018-07-03T13:31:01.947Z,37.70
2018-07-03T13:33:30.104Z,37.60
2018-07-03T13:35:58.207Z,37.60
2018-07-03T13:38:26.332Z,37.60
2018-07-03T13:40:54.475Z,37.60
2018-07-03T13:43:22.559Z,37.50
2018-07-03T13:45:50.786Z,37.40
2018-07-03T13:48:19.037Z,37.40
2018-07-03T13:50:47.245Z,37.40
2018-07-03T13:53:15.460Z,37.40
2018-07-03T13:55:43.563Z,37.40
2018-07-03T13:58:11.672Z,37.40
2018-07-03T14:03:07.725Z,37.30
2018-07-03T14:05:35.916Z,37.20
2018-07-03T14:08:04.148Z,37.10
2018-07-03T14:10:32.619Z,37.10
2018-07-03T14:13:00.917Z,36.90
2018-07-03T14:15:29.057Z,37.00
2018-07-03T14:17:57.169Z,36.90
2018-07-03T14:20:25.458Z,36.80
2018-07-03T14:22:53.644Z,36.60
2018-07-03T14:25:21.942Z,36.40
2018-07-03T14:27:50.028Z,36.30
2018-07-03T14:30:18.337Z,36.30
2018-07-03T14:32:46.683Z,36.30
2018-07-03T14:35:14.887Z,36.20
2018-07-03T14:37:43.027Z,36.10
2018-07-03T14:40:11.120Z,35.90
2018-07-03T14:42:39.409Z,35.80
2018-07-03T14:45:07.584Z,35.60
2018-07-03T14:47:35.861Z,35.50
2018-07-03T14:52:31.984Z,35.40
2018-07-03T14:55:00.252Z,35.40
2018-07-03T14:57:28.903Z,35.30
2018-07-03T14:59:57.025Z,35.10
2018-07-03T15:02:25.414Z,35.00
2018-07-03T15:04:53.601Z,35.00
2018-07-03T15:07:21.707Z,34.90
2018-07-03T15:09:49.837Z,34.90
2018-07-03T15:12:17.957Z,34.70
2018-07-03T15:14:46.085Z,34.70
2018-07-03T15:17:14.217Z,34.60
2018-07-03T15:19:47.951Z,34.50
2018-07-03T15:22:16.364Z,34.40
2018-07-03T15:24:44.510Z,34.20
2018-07-03T15:27:12.661Z,34.20
2018-07-03T15:29:40.762Z,34.00
2018-07-03T15:32:08.896Z,33.80
2018-07-03T15:34:36.991Z,33.70
2018-07-03T15:37:05.187Z,33.60
2018-07-03T15:39:33.298Z,33.60
2018-07-03T15:42:01.419Z,33.50
2018-07-03T15:44:40.871Z,33.40
2018-07-03T15:47:08.987Z,33.30
2018-07-03T15:49:37.097Z,33.20
2018-07-03T15:52:05.252Z,33.10
2018-07-03T15:54:33.365Z,33.00
2018-07-03T15:57:01.461Z,33.00
2018-07-03T15:59:29.732Z,32.80
2018-07-03T16:05:35.329Z,32.70
2018-07-03T16:08:45.849Z,32.60
2018-07-03T16:11:14.048Z,32.50
2018-07-03T16:13:42.259Z,32.30
2018-07-03T16:16:10.380Z,32.30
2018-07-03T16:18:38.517Z,32.20
2018-07-03T16:21:06.682Z,32.10
2018-07-03T16:23:34.775Z,32.00
2018-07-03T16:26:02.883Z,31.90
2018-07-03T16:28:31.000Z,31.80
2018-07-03T16:33:27.185Z,31.80
2018-07-03T16:35:55.485Z,31.60
2018-07-03T16:40:51.544Z,31.40
2018-07-03T16:43:19.888Z,31.40
2018-07-03T16:50:43.780Z,31.10
2018-07-03T16:53:11.883Z,31.10
2018-07-03T16:55:39.965Z,31.00
2018-07-03T16:58:08.085Z,30.90
2018-07-03T17:00:36.195Z,30.90
2018-07-03T17:03:04.316Z,30.80
2018-07-03T17:05:32.539Z,30.70
2018-07-03T17:08:00.692Z,30.70
2018-07-03T17:10:28.856Z,30.50
2018-07-03T17:12:57.019Z,30.50
2018-07-03T17:15:25.280Z,30.30
2018-07-03T17:17:53.595Z,30.20
2018-07-03T17:20:21.926Z,30.10
2018-07-03T17:22:50.032Z,30.10
2018-07-03T17:25:18.179Z,30.00
2018-07-03T17:27:46.317Z,30.10
2018-07-03T17:30:14.467Z,30.00
2018-07-03T17:32:42.655Z,30.00
2018-07-03T17:35:10.790Z,29.90
2018-07-03T17:37:38.908Z,29.90
2018-07-03T17:40:18.298Z,29.80
2018-07-03T17:43:16.703Z,29.70
2018-07-03T17:45:56.228Z,29.60
2018-07-03T17:48:24.334Z,29.50
2018-07-03T17:50:52.524Z,29.40
2018-07-03T17:53:20.627Z,29.30
2018-07-03T17:55:48.732Z,29.20
2018-07-03T17:58:16.881Z,29.10
2018-07-03T18:00:44.972Z,29.10
2018-07-03T18:03:13.163Z,28.40
2018-07-03T18:05:41.215Z,27.70
2018-07-03T18:08:09.324Z,27.30
2018-07-03T18:10:37.433Z,27.30
2018-07-03T18:13:05.793Z,27.10
2018-07-03T18:15:33.924Z,26.90
2018-07-03T18:18:02.542Z,26.60
2018-07-03T18:20:30.692Z,26.60
2018-07-03T18:22:58.845Z,26.60
2018-07-03T18:25:27.514Z,26.70
2018-07-03T18:27:55.731Z,26.70
2018-07-03T18:30:23.832Z,26.60
2018-07-03T18:35:19.845Z,26.50
2018-07-03T18:37:47.959Z,26.40
2018-07-03T18:40:16.299Z,26.50
2018-07-03T18:42:44.620Z,26.40
2018-07-03T18:45:12.935Z,26.30
2018-07-03T18:52:37.059Z,26.20
2018-07-03T18:55:05.236Z,26.30
2018-07-03T18:57:33.334Z,26.30
2018-07-03T19:02:29.391Z,26.20
2018-07-03T19:04:57.513Z,25.90
2018-07-03T19:07:25.679Z,25.80
2018-07-03T19:09:53.771Z,25.70
2018-07-03T19:12:21.928Z,25.60
2018-07-03T19:14:50.097Z,25.50
2018-07-03T19:17:18.321Z,25.50
2018-07-03T19:22:14.775Z,25.10
2018-07-03T19:24:43.152Z,25.10
2018-07-03T19:27:11.460Z,25.10
2018-07-03T19:29:39.720Z,25.10
2018-07-03T19:32:07.884Z,25.00
2018-07-03T19:34:36.069Z,25.00
2018-07-03T19:37:04.588Z,25.00
2018-07-03T19:39:32.879Z,24.80
2018-07-03T19:42:01.805Z,24.80
2018-07-03T19:44:30.915Z,24.70
2018-07-03T19:46:59.759Z,24.60
2018-07-03T19:49:27.956Z,24.60
2018-07-03T19:54:24.376Z,24.40
2018-07-03T19:56:53.207Z,24.40
2018-07-03T19:59:21.499Z,24.30
2018-07-03T20:01:49.822Z,24.30
2018-07-03T20:04:18.015Z,24.30
2018-07-03T20:09:14.548Z,24.10
2018-07-03T20:11:43.055Z,24.20
2018-07-03T20:19:11.600Z,24.20
2018-07-03T20:21:41.066Z,24.20
2018-07-03T20:24:09.257Z,24.00
2018-07-03T20:26:37.442Z,24.00
2018-07-03T20:29:06.415Z,23.90
2018-07-03T20:31:34.540Z,24.00
2018-07-03T20:34:02.882Z,24.00
2018-07-03T20:36:31.172Z,23.90
2018-07-03T20:38:59.504Z,23.90
2018-07-03T20:41:27.844Z,23.90
2018-07-03T20:43:56.012Z,23.80
2018-07-03T20:46:24.152Z,23.70
2018-07-03T20:51:20.163Z,23.90
2018-07-03T20:53:48.326Z,24.10
2018-07-03T20:56:16.429Z,24.30
2018-07-03T20:58:44.528Z,24.50
2018-07-03T21:01:12.631Z,24.60
2018-07-03T21:03:40.759Z,24.80
2018-07-03T21:06:08.983Z,24.80
2018-07-03T21:08:36.967Z,24.80
2018-07-03T21:11:05.147Z,24.80
2018-07-03T21:13:33.222Z,24.80
2018-07-03T21:16:01.316Z,24.90
2018-07-03T21:18:29.424Z,24.90
2018-07-03T21:20:57.643Z,24.90
2018-07-03T21:23:25.736Z,24.90
2018-07-03T21:25:53.937Z,25.00
2018-07-03T21:28:22.106Z,24.90
2018-07-03T21:30:50.235Z,24.90
2018-07-03T21:33:18.516Z,24.90
2018-07-03T21:35:46.651Z,24.90
2018-07-03T21:38:14.755Z,24.90
2018-07-03T21:40:42.923Z,24.90
2018-07-03T21:43:10.987Z,24.80
2018-07-03T21:45:39.075Z,24.80
2018-07-03T21:48:07.176Z,24.80
2018-07-03T21:50:35.289Z,24.80
2018-07-03T21:53:03.391Z,24.80
2018-07-03T21:55:31.484Z,24.80
2018-07-03T21:57:59.603Z,24.80
2018-07-03T22:00:37.336Z,24.70
2018-07-03T22:03:06.876Z,24.70
2018-07-03T22:05:35.257Z,24.70
2018-07-03T22:10:31.607Z,24.70
2018-07-03T22:12:59.771Z,24.60
2018-07-03T22:17:55.768Z,24.60
2018-07-03T22:20:23.875Z,24.60
2018-07-03T22:22:52.052Z,24.60
2018-07-03T22:25:20.256Z,24.60
2018-07-03T22:27:48.371Z,24.50
2018-07-03T22:30:16.452Z,24.50
2018-07-03T22:32:44.548Z,24.50
2018-07-03T22:35:12.666Z,24.40
2018-07-03T22:37:40.793Z,24.40
2018-07-03T22:40:08.907Z,24.40
2018-07-03T22:42:37.292Z,24.30
2018-07-03T22:45:05.635Z,24.30
2018-07-03T22:50:01.668Z,24.30
2018-07-03T22:52:29.784Z,24.30
2018-07-03T22:54:57.895Z,24.20
2018-07-03T22:57:25.997Z,24.20
2018-07-03T23:02:21.996Z,24.10
2018-07-03T23:04:50.136Z,24.10
2018-07-03T23:07:18.247Z,24.00
2018-07-03T23:09:46.361Z,24.00
2018-07-03T23:12:20.198Z,24.00
2018-07-03T23:14:50.048Z,24.00
2018-07-03T23:17:18.144Z,23.90
2018-07-03T23:24:43.297Z,23.80
2018-07-03T23:27:11.748Z,23.90
2018-07-03T23:29:46.471Z,23.80
2018-07-03T23:32:14.600Z,23.80
2018-07-03T23:34:42.708Z,23.80
2018-07-03T23:37:11.115Z,23.70
2018-07-03T23:44:34.963Z,23.70
2018-07-03T23:47:14.442Z,23.60
2018-07-03T23:49:54.463Z,23.60
2018-07-03T23:52:34.041Z,23.60
2018-07-03T23:55:13.610Z,23.70
2018-07-03T23:57:53.208Z,23.60
